Time;durP1;ratioP1;P1;durP2;ratioP2;P2;SDS_P1;SDS_P2;PMS_P1;PMS_P2;Temp;Humidity;BMP_temperature;BMP_pressure;BME280_temperature;BME280_humidity;BME280_pressure;Samples;Min_cycle;Max_cycle;Signal;HPM_P1;HPM_P2
2023/05/14 00:02:08;;;;;;;;;;;;;;;14.88;61.06;101864.84;5034145;28;19920;-86
2023/05/14 00:04:33;;;;;;;;;;;;;;;14.86;61.11;101863.13;5067663;28;20015;-85
2023/05/14 00:06:59;;;;;;;;;;;;;;;14.82;60.67;101865.88;5051055;28;20233;-86
2023/05/14 00:09:25;;;;;;;;;;;;;;;14.77;60.85;101866.91;5051643;28;19987;-85
2023/05/14 00:11:50;;;;;;;;;;;;;;;14.74;60.90;101870.53;5050373;28;19916;-85
2023/05/14 00:14:16;;;;;;;;;;;;;;;14.70;60.48;101873.28;5050371;28;20427;-85
2023/05/14 00:16:41;;;;;;;;;;;;;;;14.63;60.61;101868.06;5063979;28;19971;-85
2023/05/14 00:19:07;;;;;;;;;;;;;;;14.60;61.75;101869.94;5037609;28;19951;-85
2023/05/14 00:21:32;;;;;;;;;;;;;;;14.57;63.64;101860.22;5054188;28;19921;-86
2023/05/14 00:23:58;;;;;;;;;;;;;;;14.55;61.58;101867.38;5037574;28;19925;-86
2023/05/14 00:26:23;;;;;;;;;;;;;;;14.51;61.97;101862.97;5054322;28;19921;-86
2023/05/14 00:28:48;;;;;;;;;;;;;;;14.46;62.22;101856.88;5052675;28;20392;-85
2023/05/14 00:31:14;;;;;;;;;;;;;;;14.41;62.81;101864.09;5051213;28;19920;-86
2023/05/14 00:33:39;;;;;;;;;;;;;;;14.37;60.79;101865.09;5053961;28;19920;-85
2023/05/14 00:36:05;;;;;;;;;;;;;;;14.34;63.55;101857.13;5068301;28;19925;-86
2023/05/14 00:38:30;;;;;;;;;;;;;;;14.31;63.18;101857.22;5053995;28;19971;-86
2023/05/14 00:40:55;;;;;;;;;;;;;;;14.27;62.82;101842.19;5053822;28;19921;-86
2023/05/14 00:43:21;;;;;;;;;;;;;;;14.22;62.74;101857.41;5054116;28;19917;-85
2023/05/14 00:45:49;;;;;;;;;;;;;;;14.17;63.09;101847.72;5055882;28;19912;-85
2023/05/14 00:48:14;;;;;;;;;;;;;;;14.13;63.79;101846.03;5053547;28;19987;-85
2023/05/14 00:50:40;;;;;;;;;;;;;;;14.09;63.40;101833.66;5053348;28;20396;-85
2023/05/14 00:53:09;;;;;;;;;;;;;;;14.03;63.77;101844.47;5034046;28;19929;-85
2023/05/14 00:55:39;;;;;;;;;;;;;;;13.95;62.38;101835.78;5052292;28;19925;-85
2023/05/14 00:58:06;;;;;;;;;;;;;;;13.90;64.63;101838.53;5053272;28;19940;-86
2023/05/14 01:00:32;;;;;;;;;;;;;;;13.84;63.97;101835.97;5053052;28;19913;-86
2023/05/14 01:03:00;;;;;;;;;;;;;;;13.80;64.18;101836.94;5053160;28;20338;-86
2023/05/14 01:05:28;;;;;;;;;;;;;;;13.77;65.31;101836.97;5047025;28;19932;-86
2023/05/14 01:07:53;;;;;;;;;;;;;;;13.74;65.06;101839.72;5054505;28;19920;-86
2023/05/14 01:10:29;;;;;;;;;;;;;;;13.70;65.29;101835.38;5054634;28;19943;-85
2023/05/14 01:13:06;;;;;;;;;;;;;;;13.64;64.70;101833.69;5054450;28;20540;-81
2023/05/14 01:15:33;;;;;;;;;;;;;;;13.57;65.49;101842.69;5052877;28;19942;-81
2023/05/14 01:18:02;;;;;;;;;;;;;;;13.51;64.88;101833.03;5026247;28;19975;-81
2023/05/14 01:20:27;;;;;;;;;;;;;;;13.45;65.65;101833.16;5049740;28;19917;-81
2023/05/14 01:22:52;;;;;;;;;;;;;;;13.39;66.13;101825.28;5036425;28;19925;-81
2023/05/14 01:25:18;;;;;;;;;;;;;;;13.33;66.00;101822.72;5039435;28;19921;-81
2023/05/14 01:28:02;;;;;;;;;;;;;;;13.33;65.96;101830.72;5053316;28;19916;-81
2023/05/14 01:30:32;;;;;;;;;;;;;;;13.31;65.92;101821.88;5053745;28;19921;-81
2023/05/14 01:33:00;;;;;;;;;;;;;;;13.29;65.85;101823.69;5053346;28;19917;-81
2023/05/14 01:35:27;;;;;;;;;;;;;;;13.26;66.95;101823.72;5048857;28;19961;-81
2023/05/14 01:37:55;;;;;;;;;;;;;;;13.20;66.81;101819.34;5054312;28;19916;-82
2023/05/14 01:40:20;;;;;;;;;;;;;;;13.16;66.35;101822.13;5040072;28;19913;-82
2023/05/14 01:42:45;;;;;;;;;;;;;;;13.10;66.39;101823.06;5024118;28;19921;-82
2023/05/14 01:45:11;;;;;;;;;;;;;;;13.06;66.43;101826.72;5050437;28;19952;-82
2023/05/14 01:47:36;;;;;;;;;;;;;;;13.00;67.50;101817.03;5036160;28;19984;-81
2023/05/14 01:50:02;;;;;;;;;;;;;;;12.94;68.10;101825.13;5035408;28;19927;-81
2023/05/14 01:52:27;;;;;;;;;;;;;;;12.89;67.67;101825.19;5052364;28;19928;-81
2023/05/14 01:54:53;;;;;;;;;;;;;;;12.86;68.09;101819.94;5052539;28;19943;-81
2023/05/14 01:57:18;;;;;;;;;;;;;;;12.84;69.94;101824.38;5034600;28;19924;-81
2023/05/14 01:59:44;;;;;;;;;;;;;;;12.82;68.90;101820.88;5032869;28;20299;-81
2023/05/14 02:02:09;;;;;;;;;;;;;;;12.79;67.31;101812.94;5049943;28;19921;-81
2023/05/14 02:04:34;;;;;;;;;;;;;;;12.76;68.18;101810.34;5052332;28;19923;-81
2023/05/14 02:07:00;;;;;;;;;;;;;;;12.75;68.35;101810.34;5040701;28;19920;-81
2023/05/14 02:09:25;;;;;;;;;;;;;;;12.75;67.50;101819.19;5065523;28;19916;-81
2023/05/14 02:11:50;;;;;;;;;;;;;;;12.77;68.70;101813.88;5031807;28;19921;-81
2023/05/14 02:14:16;;;;;;;;;;;;;;;12.78;69.15;101815.63;5051481;28;20312;-81
2023/05/14 02:16:41;;;;;;;;;;;;;;;12.77;68.07;101816.53;5035128;28;19963;-81
2023/05/14 02:19:07;;;;;;;;;;;;;;;12.75;68.03;101808.56;5034777;28;19970;-81
2023/05/14 02:21:32;;;;;;;;;;;;;;;12.73;68.23;101801.53;5068492;28;19921;-81
2023/05/14 02:23:58;;;;;;;;;;;;;;;12.69;68.40;101809.56;5053003;28;19925;-81
2023/05/14 02:26:23;;;;;;;;;;;;;;;12.66;69.91;101800.72;5018276;28;19921;-81
2023/05/14 02:28:49;;;;;;;;;;;;;;;12.65;69.50;101804.31;5042080;28;19913;-81
2023/05/14 02:31:16;;;;;;;;;;;;;;;12.63;69.08;101811.41;5051586;28;20011;-81
2023/05/14 02:33:41;;;;;;;;;;;;;;;12.62;70.70;101812.31;5035278;28;20449;-81
2023/05/14 02:36:07;;;;;;;;;;;;;;;12.62;69.93;101802.56;5049479;28;19920;-81
2023/05/14 02:38:32;;;;;;;;;;;;;;;12.61;69.76;101805.22;5039817;28;19916;-82
2023/05/14 02:40:58;;;;;;;;;;;;;;;12.56;69.29;101810.66;5060906;28;20000;-81
2023/05/14 02:43:23;;;;;;;;;;;;;;;12.52;71.01;101808.06;5041600;28;19966;-82
2023/05/14 02:45:48;;;;;;;;;;;;;;;12.48;69.51;101805.41;5025846;28;19920;-81
2023/05/14 02:48:14;;;;;;;;;;;;;;;12.45;69.57;101808.13;5037851;28;19921;-81
2023/05/14 02:50:39;;;;;;;;;;;;;;;12.42;68.36;101805.53;5051119;28;20019;-81
2023/05/14 02:53:04;;;;;;;;;;;;;;;12.39;70.08;101807.34;5034877;28;20442;-81
2023/05/14 02:55:30;;;;;;;;;;;;;;;12.33;69.79;101802.09;5067830;28;19920;-81
2023/05/14 02:57:55;;;;;;;;;;;;;;;12.28;73.35;101810.13;5051279;28;19971;-81
2023/05/14 03:00:21;;;;;;;;;;;;;;;12.24;71.36;101809.31;5050821;28;19928;-81
2023/05/14 03:02:46;;;;;;;;;;;;;;;12.22;72.79;101804.91;5034448;28;19962;-81
2023/05/14 03:05:12;;;;;;;;;;;;;;;12.20;72.11;101790.78;5038316;28;19970;-81
2023/05/14 03:07:37;;;;;;;;;;;;;;;12.17;72.48;101789.03;5052060;28;20371;-81
2023/05/14 03:10:03;;;;;;;;;;;;;;;12.13;72.26;101792.63;5042631;28;19936;-81
2023/05/14 03:12:28;;;;;;;;;;;;;;;12.11;71.98;101797.06;5052133;28;19963;-82
2023/05/14 03:14:53;;;;;;;;;;;;;;;12.07;72.10;101792.72;5050990;28;19917;-82
2023/05/14 03:17:19;;;;;;;;;;;;;;;12.07;72.12;101794.47;5050683;28;19917;-82
2023/05/14 03:19:44;;;;;;;;;;;;;;;12.04;70.92;101791.00;5018334;28;19925;-82
2023/05/14 03:22:10;;;;;;;;;;;;;;;12.03;71.91;101793.66;5044137;28;19913;-81
2023/05/14 03:24:37;;;;;;;;;;;;;;;12.00;72.75;101791.91;5033968;28;19979;-80
2023/05/14 03:27:03;;;;;;;;;;;;;;;11.98;72.55;101790.19;5039131;28;19963;-81
2023/05/14 03:29:29;;;;;;;;;;;;;;;11.93;72.83;101779.59;5043118;28;19947;-81
2023/05/14 03:31:54;;;;;;;;;;;;;;;11.91;71.80;101784.06;5052035;28;19924;-81
2023/05/14 03:34:20;;;;;;;;;;;;;;;11.86;71.25;101785.84;5050420;28;19927;-81
2023/05/14 03:36:45;;;;;;;;;;;;;;;11.80;72.18;101783.28;5063265;28;20412;-81
2023/05/14 03:39:14;;;;;;;;;;;;;;;11.76;73.12;101787.75;5050647;28;19921;-81
2023/05/14 03:41:39;;;;;;;;;;;;;;;11.73;74.36;101782.47;5050909;28;19925;-82
2023/05/14 03:44:05;;;;;;;;;;;;;;;11.71;72.83;101781.59;5051829;28;20004;-81
2023/05/14 03:46:30;;;;;;;;;;;;;;;11.67;73.45;101779.91;5050332;28;19917;-82
2023/05/14 03:48:56;;;;;;;;;;;;;;;11.66;72.57;101779.91;5051539;28;19968;-82
2023/05/14 03:51:21;;;;;;;;;;;;;;;11.63;73.38;101784.34;5054496;28;20389;-82
2023/05/14 03:53:46;;;;;;;;;;;;;;;11.58;73.15;101780.00;5066920;28;19920;-81
2023/05/14 03:56:12;;;;;;;;;;;;;;;11.53;71.68;101782.69;5037607;28;20348;-81
2023/05/14 03:58:38;;;;;;;;;;;;;;;11.49;73.64;101780.97;5055447;28;19921;-81
2023/05/14 04:01:03;;;;;;;;;;;;;;;11.49;75.52;101774.78;5053921;28;19971;-81
2023/05/14 04:03:29;;;;;;;;;;;;;;;11.47;74.69;101777.44;5034126;28;19928;-81
2023/05/14 04:05:55;;;;;;;;;;;;;;;11.45;74.68;101778.34;5053753;28;19912;-81
2023/05/14 04:08:21;;;;;;;;;;;;;;;11.44;75.85;101780.13;5037259;28;19943;-81
2023/05/14 04:10:46;;;;;;;;;;;;;;;11.44;74.03;101782.78;5069969;28;19920;-81
2023/05/14 04:13:11;;;;;;;;;;;;;;;11.45;76.47;101776.59;5055195;28;20339;-81
2023/05/14 04:15:38;;;;;;;;;;;;;;;11.46;76.29;101783.66;5040230;28;19917;-81
2023/05/14 04:18:04;;;;;;;;;;;;;;;11.44;74.78;101776.63;5055582;28;19983;-80
2023/05/14 04:20:29;;;;;;;;;;;;;;;11.39;73.83;101769.56;5053964;28;20359;-81
2023/05/14 04:22:55;;;;;;;;;;;;;;;11.38;74.96;101772.25;5050667;28;19929;-81
2023/05/14 04:25:20;;;;;;;;;;;;;;;11.35;74.35;101769.63;5047142;28;19921;-81
2023/05/14 04:27:45;;;;;;;;;;;;;;;11.34;77.35;101778.47;5055335;28;19941;-81
2023/05/14 04:30:11;;;;;;;;;;;;;;;11.30;76.38;101772.34;5048062;28;20340;-81
2023/05/14 04:32:36;;;;;;;;;;;;;;;11.30;75.28;101775.00;5055020;28;19947;-81
2023/05/14 04:35:03;;;;;;;;;;;;;;;11.30;75.11;101774.09;5037053;28;20007;-81
2023/05/14 04:37:28;;;;;;;;;;;;;;;11.28;75.70;101774.13;5054992;28;20449;-81
2023/05/14 04:39:54;;;;;;;;;;;;;;;11.27;76.01;101779.44;5036617;28;19976;-81
2023/05/14 04:42:20;;;;;;;;;;;;;;;11.27;76.01;101780.31;5053507;28;20287;-81
2023/05/14 04:44:45;;;;;;;;;;;;;;;11.27;76.91;101777.66;5053340;28;19924;-81
2023/05/14 04:47:11;;;;;;;;;;;;;;;11.30;76.80;101774.09;5036632;28;19928;-81
2023/05/14 04:49:36;;;;;;;;;;;;;;;11.28;76.25;101773.25;5054471;28;19917;-80
2023/05/14 04:52:02;;;;;;;;;;;;;;;11.26;76.85;101781.22;5053257;28;19947;-80
2023/05/14 04:54:27;;;;;;;;;;;;;;;11.26;77.77;101778.56;5070128;28;19917;-80
2023/05/14 04:56:54;;;;;;;;;;;;;;;11.25;78.68;101776.81;5053169;28;20256;-80
2023/05/14 04:59:20;;;;;;;;;;;;;;;11.25;79.33;101773.25;5055053;28;19917;-80
2023/05/14 05:01:45;;;;;;;;;;;;;;;11.24;79.54;101779.47;5053634;28;19931;-80
2023/05/14 05:04:11;;;;;;;;;;;;;;;11.24;77.83;101775.03;5054460;28;20011;-80
2023/05/14 05:06:36;;;;;;;;;;;;;;;11.29;78.95;101775.00;5054717;28;20287;-80
2023/05/14 05:09:01;;;;;;;;;;;;;;;11.31;78.99;101774.09;5053146;28;19921;-80
2023/05/14 05:11:27;;;;;;;;;;;;;;;11.35;78.64;101780.22;5054892;28;19988;-80
2023/05/14 05:13:52;;;;;;;;;;;;;;;11.42;80.19;101781.91;5057823;28;19920;-80
2023/05/14 05:16:17;;;;;;;;;;;;;;;11.47;79.75;101779.22;5049655;28;20108;-80
2023/05/14 05:18:44;;;;;;;;;;;;;;;11.51;78.57;101778.31;5047486;28;20355;-82
2023/05/14 05:21:09;;;;;;;;;;;;;;;11.56;78.04;101781.78;5052642;28;19996;-80
2023/05/14 05:23:35;;;;;;;;;;;;;;;11.62;78.77;101779.06;5053928;28;19947;-81
2023/05/14 05:26:00;;;;;;;;;;;;;;;11.65;78.82;101783.44;5052854;28;19917;-80
2023/05/14 05:28:26;;;;;;;;;;;;;;;11.70;78.20;101782.53;5052868;28;19958;-80
2023/05/14 05:30:51;;;;;;;;;;;;;;;11.75;79.15;101787.78;5047538;28;19921;-81
2023/05/14 05:33:17;;;;;;;;;;;;;;;11.81;80.09;101796.53;5052841;28;19975;-81
2023/05/14 05:35:43;;;;;;;;;;;;;;;11.88;78.87;101788.53;5053888;28;20334;-81
2023/05/14 05:38:08;;;;;;;;;;;;;;;11.91;78.14;101785.84;5036967;28;19928;-81
2023/05/14 05:40:34;;;;;;;;;;;;;;;11.93;77.66;101789.34;5035885;28;20295;-81
2023/05/14 05:42:59;;;;;;;;;;;;;;;11.94;77.90;101786.69;5053832;28;19963;-80
2023/05/14 05:45:24;;;;;;;;;;;;;;;11.94;75.98;101791.09;5046922;28;19925;-80
2023/05/14 05:47:50;;;;;;;;;;;;;;;11.95;78.17;101800.84;5053492;28;20221;-80
2023/05/14 05:50:15;;;;;;;;;;;;;;;11.95;78.48;101804.38;5052033;28;20284;-80
2023/05/14 05:52:41;;;;;;;;;;;;;;;11.99;76.86;101805.19;5053809;28;20398;-80
2023/05/14 05:55:06;;;;;;;;;;;;;;;12.04;78.56;101803.34;5035199;28;20291;-80
2023/05/14 05:57:32;;;;;;;;;;;;;;;12.06;78.57;101804.22;5035847;28;19924;-80
2023/05/14 05:59:57;;;;;;;;;;;;;;;12.08;79.58;101799.78;5052324;28;19921;-81
2023/05/14 06:02:23;;;;;;;;;;;;;;;12.09;78.91;101804.22;5049779;28;19923;-80
2023/05/14 06:04:49;;;;;;;;;;;;;;;12.14;78.44;101806.78;5046005;28;19983;-80
2023/05/14 06:07:14;;;;;;;;;;;;;;;12.17;79.13;101810.28;5051497;28;19921;-81
2023/05/14 06:09:40;;;;;;;;;;;;;;;12.17;79.32;101812.06;5053095;28;19916;-82
2023/05/14 06:12:05;;;;;;;;;;;;;;;12.18;79.53;101805.84;5056592;28;20334;-81
2023/05/14 06:14:31;;;;;;;;;;;;;;;12.17;79.10;101806.75;5052793;28;20051;-81
2023/05/14 06:16:57;;;;;;;;;;;;;;;12.17;78.16;101815.59;5053023;28;19923;-81
2023/05/14 06:19:22;;;;;;;;;;;;;;;12.19;77.63;101816.47;5053446;28;19990;-81
2023/05/14 06:21:48;;;;;;;;;;;;;;;12.19;78.42;101812.91;5051503;28;19947;-81
2023/05/14 06:24:13;;;;;;;;;;;;;;;12.30;75.41;101818.97;5052428;28;19931;-81
2023/05/14 06:26:39;;;;;;;;;;;;;;;12.45;78.53;101820.53;5068264;28;20020;-80
2023/05/14 06:29:04;;;;;;;;;;;;;;;12.62;79.95;101810.53;5051269;28;19920;-81
2023/05/14 06:31:29;;;;;;;;;;;;;;;12.79;77.99;101815.59;5066430;28;19928;-80
2023/05/14 06:33:55;;;;;;;;;;;;;;;12.98;78.58;101817.97;5075132;28;20019;-81
2023/05/14 06:36:20;;;;;;;;;;;;;;;13.18;76.28;101817.63;5038451;28;19917;-81
2023/05/14 06:38:46;;;;;;;;;;;;;;;13.29;77.06;101805.94;5034858;28;19920;-81
2023/05/14 06:41:11;;;;;;;;;;;;;;;13.37;77.22;101811.13;5052368;28;19921;-80
2023/05/14 06:43:36;;;;;;;;;;;;;;;13.45;78.37;101816.28;5052246;28;20279;-81
2023/05/14 06:46:02;;;;;;;;;;;;;;;13.59;78.22;101810.72;5052161;28;19923;-81
2023/05/14 06:48:28;;;;;;;;;;;;;;;13.74;79.22;101815.75;5034084;28;20384;-80
2023/05/14 06:50:53;;;;;;;;;;;;;;;13.84;76.14;101813.78;5050892;28;19964;-79
2023/05/14 06:53:19;;;;;;;;;;;;;;;13.95;78.15;101809.13;5051173;28;19917;-79
2023/05/14 06:55:46;;;;;;;;;;;;;;;14.03;78.56;101809.84;5051934;28;19951;-80
2023/05/14 06:58:11;;;;;;;;;;;;;;;14.16;76.91;101816.66;5053326;28;19916;-79
2023/05/14 07:00:36;;;;;;;;;;;;;;;14.28;77.24;101810.19;5052120;28;20182;-80
2023/05/14 07:03:02;;;;;;;;;;;;;;;14.29;77.38;101808.41;5043821;28;19921;-80
2023/05/14 07:05:27;;;;;;;;;;;;;;;14.32;76.44;101809.22;5031646;28;19917;-79
2023/05/14 07:07:53;;;;;;;;;;;;;;;14.44;76.57;101807.19;5051969;28;19921;-78
2023/05/14 07:10:18;;;;;;;;;;;;;;;14.61;76.67;101811.28;5050800;28;19917;-79
2023/05/14 07:12:44;;;;;;;;;;;;;;;14.73;77.04;101807.44;5051421;28;19928;-79
2023/05/14 07:15:10;;;;;;;;;;;;;;;14.83;76.41;101808.94;5052314;28;19917;-79
2023/05/14 07:17:36;;;;;;;;;;;;;;;14.95;75.25;101810.44;5050864;28;19921;-80
2023/05/14 07:20:02;;;;;;;;;;;;;;;15.08;75.31;101810.16;5050650;28;19927;-80
2023/05/14 07:22:27;;;;;;;;;;;;;;;15.18;76.10;101809.91;5050329;28;20011;-79
2023/05/14 07:24:53;;;;;;;;;;;;;;;15.25;75.46;101811.47;5050525;28;19960;-80
2023/05/14 07:27:18;;;;;;;;;;;;;;;15.34;74.01;101814.84;5040046;28;19951;-80
2023/05/14 07:29:44;;;;;;;;;;;;;;;15.31;75.28;101814.91;5048484;28;19917;-79
2023/05/14 07:32:09;;;;;;;;;;;;;;;15.27;74.97;101811.44;5050732;28;19931;-78
2023/05/14 07:34:34;;;;;;;;;;;;;;;15.27;74.95;101819.44;5030348;28;19986;-80
2023/05/14 07:37:00;;;;;;;;;;;;;;;15.28;74.66;101813.16;5041405;28;20024;-80
2023/05/14 07:39:25;;;;;;;;;;;;;;;15.25;74.97;101802.59;5051656;28;19960;-80
2023/05/14 07:41:53;;;;;;;;;;;;;;;15.31;74.99;101807.78;5052520;28;19920;-80
2023/05/14 07:44:19;;;;;;;;;;;;;;;15.42;74.18;101805.69;5051846;28;19913;-78
2023/05/14 07:46:44;;;;;;;;;;;;;;;15.57;74.37;101808.88;5051620;28;19928;-78
2023/05/14 07:49:09;;;;;;;;;;;;;;;15.66;73.52;101804.16;5067523;28;19940;-79
2023/05/14 07:51:35;;;;;;;;;;;;;;;15.71;72.57;101804.06;5051689;28;19925;-78
2023/05/14 07:54:00;;;;;;;;;;;;;;;15.79;72.80;101795.84;5051634;28;19923;-76
2023/05/14 07:56:25;;;;;;;;;;;;;;;15.88;72.54;101799.13;5051601;28;19924;-77
2023/05/14 07:58:51;;;;;;;;;;;;;;;15.99;72.21;101788.09;5033775;28;19921;-77
2023/05/14 08:01:16;;;;;;;;;;;;;;;15.99;71.13;101790.78;5050268;28;19916;-78
2023/05/14 08:03:42;;;;;;;;;;;;;;;16.04;71.51;101791.53;5065124;28;19972;-78
2023/05/14 08:06:07;;;;;;;;;;;;;;;16.06;70.84;101791.50;5030352;28;19917;-77
2023/05/14 08:08:33;;;;;;;;;;;;;;;16.08;70.20;101793.19;5050235;28;20411;-78
2023/05/14 08:10:58;;;;;;;;;;;;;;;16.21;70.12;101796.38;5050291;28;19917;-79
2023/05/14 08:13:24;;;;;;;;;;;;;;;16.42;70.74;101791.28;5051568;28;19943;-79
2023/05/14 08:15:49;;;;;;;;;;;;;;;16.63;70.58;101785.25;5050262;28;20007;-77
2023/05/14 08:18:14;;;;;;;;;;;;;;;16.70;69.21;101789.50;5033570;28;20027;-77
2023/05/14 08:20:40;;;;;;;;;;;;;;;16.80;69.54;101790.09;5043002;28;20379;-77
2023/05/14 08:23:06;;;;;;;;;;;;;;;16.92;69.19;101788.84;5050081;28;19924;-77
2023/05/14 08:25:32;;;;;;;;;;;;;;;17.01;66.75;101782.28;5049776;28;19987;-77
2023/05/14 08:28:00;;;;;;;;;;;;;;;17.07;68.26;101782.97;5047836;28;19925;-77
2023/05/14 08:30:26;;;;;;;;;;;;;;;17.23;67.66;101782.44;5034853;28;20298;-77
2023/05/14 08:32:51;;;;;;;;;;;;;;;17.42;68.33;101784.41;5039283;28;19929;-77
2023/05/14 08:35:17;;;;;;;;;;;;;;;17.71;68.04;101789.66;5050996;28;19920;-76
2023/05/14 08:37:43;;;;;;;;;;;;;;;17.97;65.62;101784.22;5054915;28;19970;-76
2023/05/14 08:40:09;;;;;;;;;;;;;;;18.17;66.89;101788.81;5054809;28;19920;-80
2023/05/14 08:42:37;;;;;;;;;;;;;;;18.34;65.25;101781.94;5033347;28;19942;-77
2023/05/14 08:45:04;;;;;;;;;;;;;;;18.40;65.07;101787.06;5046158;28;20275;-77
2023/05/14 08:47:30;;;;;;;;;;;;;;;18.35;64.09;101771.16;5044057;28;19971;-76
2023/05/14 08:49:58;;;;;;;;;;;;;;;18.29;64.18;101776.75;5036485;28;19958;-78
2023/05/14 08:52:24;;;;;;;;;;;;;;;18.34;64.48;101772.06;5054547;28;19925;-76
2023/05/14 08:54:50;;;;;;;;;;;;;;;18.40;63.61;101763.81;5054467;28;19917;-76
2023/05/14 08:57:17;;;;;;;;;;;;;;;18.45;62.63;101769.84;5055186;28;19924;-75
2023/05/14 08:59:42;;;;;;;;;;;;;;;18.35;63.91;101773.84;5054116;28;19913;-77
2023/05/14 09:02:08;;;;;;;;;;;;;;;18.27;63.55;101775.94;5055165;28;19928;-77
2023/05/14 09:04:35;;;;;;;;;;;;;;;18.35;63.54;101775.66;5054088;28;19917;-77
2023/05/14 09:07:01;;;;;;;;;;;;;;;18.47;64.04;101767.09;5058693;28;20237;-77
2023/05/14 09:09:27;;;;;;;;;;;;;;;18.66;62.99;101761.84;5054322;28;19913;-77
2023/05/14 09:11:52;;;;;;;;;;;;;;;18.83;61.76;101758.53;5052757;28;19948;-77
2023/05/14 09:14:18;;;;;;;;;;;;;;;18.95;61.39;101752.63;5052643;28;19925;-77
2023/05/14 09:16:44;;;;;;;;;;;;;;;19.05;60.38;101753.13;5053982;28;20364;-77
2023/05/14 09:19:10;;;;;;;;;;;;;;;19.12;60.67;101757.28;5052176;28;19957;-78
2023/05/14 09:21:36;;;;;;;;;;;;;;;19.21;60.23;101748.81;5053485;28;19943;-77
2023/05/14 09:24:02;;;;;;;;;;;;;;;19.31;60.41;101746.59;5052167;28;20384;-77
2023/05/14 09:26:30;;;;;;;;;;;;;;;19.50;61.50;101747.53;5052670;28;19942;-77
2023/05/14 09:29:03;;;;;;;;;;;;;;;19.65;60.17;101742.41;5051139;28;19913;-77
2023/05/14 09:31:29;;;;;;;;;;;;;;;19.75;58.86;101747.31;5050159;28;20338;-77
2023/05/14 09:33:54;;;;;;;;;;;;;;;19.84;59.55;101747.84;5051653;28;19985;-77
2023/05/14 09:36:20;;;;;;;;;;;;;;;19.97;58.95;101749.03;5032367;28;19921;-77
2023/05/14 09:38:45;;;;;;;;;;;;;;;19.99;58.90;101744.44;5050116;28;20372;-77
2023/05/14 09:41:11;;;;;;;;;;;;;;;20.10;59.43;101735.88;5052038;28;19928;-77
2023/05/14 09:43:36;;;;;;;;;;;;;;;20.10;58.31;101741.25;5051999;28;20426;-77
2023/05/14 09:46:02;;;;;;;;;;;;;;;20.13;57.33;101741.13;5051020;28;20437;-77
2023/05/14 09:48:27;;;;;;;;;;;;;;;20.15;58.18;101736.50;5046513;28;20012;-77
2023/05/14 09:50:53;;;;;;;;;;;;;;;20.22;58.53;101735.28;5035144;28;19921;-77
2023/05/14 09:53:18;;;;;;;;;;;;;;;20.36;54.66;101735.50;5054005;28;20048;-77
2023/05/14 09:55:44;;;;;;;;;;;;;;;20.41;55.51;101735.28;5051910;28;19912;-78
2023/05/14 09:58:09;;;;;;;;;;;;;;;20.46;54.88;101732.34;5035736;28;19916;-77
2023/05/14 10:00:35;;;;;;;;;;;;;;;20.51;55.58;101728.47;5053168;28;19916;-77
2023/05/14 10:03:04;;;;;;;;;;;;;;;20.66;56.81;101726.88;5053555;28;19966;-77
2023/05/14 10:05:32;;;;;;;;;;;;;;;20.85;56.26;101724.16;5035424;28;19967;-77
2023/05/14 10:07:58;;;;;;;;;;;;;;;21.05;55.85;101728.50;5051926;28;20271;-77
2023/05/14 10:10:25;;;;;;;;;;;;;;;21.22;53.76;101725.81;5053060;28;20284;-77
2023/05/14 10:12:52;;;;;;;;;;;;;;;21.31;55.44;101727.13;5051760;28;20279;-77
2023/05/14 10:15:25;;;;;;;;;;;;;;;21.42;51.45;101719.38;5051824;28;19919;-77
2023/05/14 10:17:54;;;;;;;;;;;;;;;21.47;52.97;101719.16;5035366;28;20260;-77
2023/05/14 10:20:21;;;;;;;;;;;;;;;21.48;53.49;101720.88;5052442;28;20315;-77
2023/05/14 10:22:47;;;;;;;;;;;;;;;21.58;54.21;101721.25;5054285;28;20011;-78
2023/05/14 10:25:12;;;;;;;;;;;;;;;21.73;53.30;101724.94;5056546;28;19963;-77
2023/05/14 10:27:38;;;;;;;;;;;;;;;21.84;52.12;101718.00;5036620;28;19920;-78
2023/05/14 10:30:05;;;;;;;;;;;;;;;21.87;53.24;101720.53;5053074;28;20456;-77
2023/05/14 10:32:31;;;;;;;;;;;;;;;22.05;51.64;101707.84;5053043;28;20011;-77
2023/05/14 10:34:57;;;;;;;;;;;;;;;22.20;51.58;101699.88;5030650;28;19916;-77
2023/05/14 10:37:24;;;;;;;;;;;;;;;22.27;51.35;101703.97;5052633;28;19974;-77
2023/05/14 10:39:50;;;;;;;;;;;;;;;22.39;51.35;101700.56;5050962;28;19944;-77
2023/05/14 10:42:16;;;;;;;;;;;;;;;22.57;50.99;101700.44;5034398;28;19927;-77
2023/05/14 10:44:49;;;;;;;;;;;;;;;22.72;51.48;101697.72;5034412;28;19924;-77
2023/05/14 10:47:16;;;;;;;;;;;;;;;22.87;49.16;101693.22;5034319;28;20171;-77
2023/05/14 10:49:42;;;;;;;;;;;;;;;22.84;45.29;101682.59;5051035;28;19916;-77
2023/05/14 10:52:08;;;;;;;;;;;;;;;22.84;48.97;101679.03;5050916;28;20441;-77
2023/05/14 10:54:36;;;;;;;;;;;;;;;22.95;48.61;101684.66;5050985;28;20435;-77
2023/05/14 10:57:02;;;;;;;;;;;;;;;23.12;49.58;101691.75;5037543;28;20060;-77
2023/05/14 10:59:27;;;;;;;;;;;;;;;23.24;49.27;101691.00;5050260;28;19913;-77
2023/05/14 11:01:53;;;;;;;;;;;;;;;23.09;48.18;101686.53;5050720;28;20374;-76
2023/05/14 11:04:22;;;;;;;;;;;;;;;23.07;47.88;101681.25;5063253;28;19920;-77
2023/05/14 11:06:48;;;;;;;;;;;;;;;23.15;48.65;101673.53;5040319;28;19921;-76
2023/05/14 11:09:15;;;;;;;;;;;;;;;23.45;49.03;101669.03;5049428;28;19924;-77
2023/05/14 11:11:41;;;;;;;;;;;;;;;23.77;49.41;101670.56;5052033;28;20292;-77
2023/05/14 11:14:06;;;;;;;;;;;;;;;24.01;48.90;101672.63;5050373;28;19920;-77
2023/05/14 11:16:32;;;;;;;;;;;;;;;24.22;47.79;101665.81;5050949;28;19920;-77
2023/05/14 11:19:02;;;;;;;;;;;;;;;24.41;46.64;101670.03;5050431;28;20030;-77
2023/05/14 11:21:28;;;;;;;;;;;;;;;24.58;46.37;101667.06;5052025;28;19923;-77
2023/05/14 11:23:54;;;;;;;;;;;;;;;24.79;46.26;101672.00;5050208;28;20003;-77
2023/05/14 11:26:20;;;;;;;;;;;;;;;24.91;47.92;101668.44;5051772;28;19924;-77
2023/05/14 11:28:45;;;;;;;;;;;;;;;24.98;44.59;101668.88;5045315;28;20307;-77
2023/05/14 11:31:11;;;;;;;;;;;;;;;25.03;46.61;101669.44;5031152;28;20020;-76
2023/05/14 11:33:36;;;;;;;;;;;;;;;25.11;46.24;101658.91;5050603;28;19913;-75
2023/05/14 11:36:03;;;;;;;;;;;;;;;25.20;43.67;101662.88;5050791;28;20381;-75
2023/05/14 11:38:28;;;;;;;;;;;;;;;25.34;47.38;101660.00;5051035;28;19917;-75
2023/05/14 11:40:58;;;;;;;;;;;;;;;25.47;46.52;101650.03;5050195;28;19974;-75
2023/05/14 11:43:27;;;;;;;;;;;;;;;25.69;46.71;101643.94;5053005;28;19923;-75
2023/05/14 11:45:53;;;;;;;;;;;;;;;25.84;44.38;101643.75;5051647;28;19917;-76
2023/05/14 11:48:21;;;;;;;;;;;;;;;26.02;44.92;101644.31;5051544;28;19917;-75
2023/05/14 11:50:47;;;;;;;;;;;;;;;26.08;45.88;101633.84;5059226;28;19974;-75
2023/05/14 11:53:23;;;;;;;;;;;;;;;26.28;45.96;101634.19;5050206;28;19927;-75
2023/05/14 11:55:49;;;;;;;;;;;;;;;26.45;42.44;101633.75;5051489;28;19921;-75
2023/05/14 11:58:15;;;;;;;;;;;;;;;26.50;43.21;101636.13;5053637;28;19978;-75
2023/05/14 12:00:43;;;;;;;;;;;;;;;26.63;44.51;101633.38;5050048;28;19975;-75
2023/05/14 12:03:08;;;;;;;;;;;;;;;26.83;44.24;101621.84;5050141;28;20346;-75
2023/05/14 12:05:36;;;;;;;;;;;;;;;26.93;43.63;101631.00;5051350;28;20038;-75
2023/05/14 12:08:01;;;;;;;;;;;;;;;27.10;42.71;101623.34;5050439;28;20372;-76
2023/05/14 12:10:27;;;;;;;;;;;;;;;27.21;43.95;101623.41;5051303;28;19932;-76
2023/05/14 12:12:52;;;;;;;;;;;;;;;27.32;40.11;101609.78;5055348;28;19917;-77
2023/05/14 12:15:17;;;;;;;;;;;;;;;27.47;43.54;101614.97;5055049;28;19917;-77
2023/05/14 12:17:48;;;;;;;;;;;;;;;27.61;42.75;101620.16;5055236;28;19974;-77
2023/05/14 12:20:13;;;;;;;;;;;;;;;27.73;39.72;101610.13;5053559;28;19916;-78
2023/05/14 12:22:40;;;;;;;;;;;;;;;27.75;40.36;101608.16;5054826;28;19917;-77
2023/05/14 12:25:12;;;;;;;;;;;;;;;27.71;37.70;101603.94;5054726;28;19924;-77
2023/05/14 12:27:37;;;;;;;;;;;;;;;27.78;39.77;101611.47;5053813;28;19921;-77
2023/05/14 12:30:04;;;;;;;;;;;;;;;27.75;41.00;101605.44;5053545;28;19916;-77